Alta Loma, California
Current Conditions -  °F | °C
As of 3:53 PM on Tuesday 25 Nov 2014 (Local Time) from KONT Reporting Station
Clear Clear  
Wind Chill: 77°   Ceiling: Unl
Heat Index: 77°   Visibility: 10mi
Dew Point:   Wind: 5mph
Humidity: 7%   Direction: 260°W
Pressure: 30.27"   Gusts: NA
Location:  34.12°N, 117.6°W
Report Text: KONT 252353Z 26004KT 10SM CLR 25/M14 A3027 RMK AO2 SLP242 T02501144 10256 20206 56011
Loading
Personal Weather Stations






























Interactive Weather Map New forecast layout! Learn more

10-Day Weather Forecast

Advertisements
Track Severe Weather on mobile